createdAt,value
2022-12-11T00:01:23.729Z,100959.59
2022-12-11T00:03:52.878Z,100950.06
2022-12-11T00:06:25.438Z,100949.16
2022-12-11T00:08:56.405Z,100955.22
2022-12-11T00:11:25.695Z,100943.91
2022-12-11T00:13:54.336Z,100939.63
2022-12-11T00:16:26.857Z,100938.81
2022-12-11T00:18:56.006Z,100949.22
2022-12-11T00:21:26.815Z,100957.09
2022-12-11T00:23:55.467Z,100966.66
2022-12-11T00:26:24.540Z,100960.56
2022-12-11T00:28:56.594Z,100964.88
2022-12-11T00:31:26.421Z,100961.44
2022-12-11T00:33:55.120Z,100959.59
2022-12-11T00:36:28.708Z,100957.88
2022-12-11T00:38:57.412Z,100957.81
2022-12-11T00:41:26.715Z,100956.94
2022-12-11T00:43:55.455Z,100961.19
2022-12-11T00:46:24.427Z,100954.25
2022-12-11T00:48:53.711Z,100956.00
2022-12-11T00:51:22.453Z,100952.50
2022-12-11T00:53:52.668Z,100949.13
2022-12-11T00:56:24.737Z,100947.28
2022-12-11T00:58:53.697Z,100962.81
2022-12-11T01:01:25.341Z,100960.22
2022-12-11T01:03:55.494Z,100962.81
2022-12-11T01:06:26.977Z,100969.69
2022-12-11T01:09:12.178Z,100968.13
2022-12-11T01:11:42.899Z,100965.41
2022-12-11T01:14:15.594Z,100962.81
2022-12-11T01:16:44.464Z,100943.84
2022-12-11T01:19:13.280Z,100943.88
2022-12-11T01:21:45.372Z,100947.31
2022-12-11T01:24:15.531Z,100962.88
2022-12-11T01:26:44.304Z,100944.75
2022-12-11T01:29:13.069Z,100957.69
2022-12-11T01:31:41.773Z,100956.00
2022-12-11T01:34:10.490Z,100941.31
2022-12-11T01:36:39.380Z,100938.72
2022-12-11T01:39:08.099Z,100943.06
2022-12-11T01:41:38.375Z,100940.38
2022-12-11T01:44:29.174Z,100941.25
2022-12-11T01:46:58.684Z,100938.72
2022-12-11T01:49:30.688Z,100935.19
2022-12-11T01:52:08.910Z,100932.56
2022-12-11T01:54:37.672Z,100935.97
2022-12-11T01:57:12.488Z,100930.75
2022-12-11T01:59:46.106Z,100922.13
2022-12-11T02:02:22.269Z,100925.66
2022-12-11T02:04:50.893Z,100921.34
2022-12-11T02:07:19.710Z,100924.81
2022-12-11T02:09:50.265Z,100929.28
2022-12-11T02:12:29.504Z,100940.59
2022-12-11T02:15:04.738Z,100940.63
2022-12-11T02:17:43.416Z,100938.84
2022-12-11T02:20:20.094Z,100938.88
2022-12-11T02:23:19.800Z,100933.63
2022-12-11T02:26:05.552Z,100931.88
2022-12-11T02:28:42.296Z,100929.34
2022-12-11T02:31:18.521Z,100939.81
2022-12-11T02:33:56.395Z,100935.56
2022-12-11T02:36:31.688Z,100937.38
2022-12-11T02:39:05.034Z,100938.28
2022-12-11T02:41:35.556Z,100937.47
2022-12-11T02:44:07.590Z,100933.19
2022-12-11T02:46:37.950Z,100937.50
2022-12-11T02:49:10.275Z,100924.53
2022-12-11T02:51:43.476Z,100929.72
2022-12-11T02:54:21.854Z,100920.19
2022-12-11T02:56:56.328Z,100928.88
2022-12-11T02:59:33.221Z,100921.03
2022-12-11T03:02:02.637Z,100916.72
2022-12-11T03:04:32.308Z,100916.69
2022-12-11T03:07:12.332Z,100914.09
2022-12-11T03:09:42.266Z,100908.88
2022-12-11T03:12:16.217Z,100923.59
2022-12-11T03:14:48.143Z,100919.28
2022-12-11T03:17:23.227Z,100926.25
2022-12-11T03:20:05.978Z,100930.59
2022-12-11T03:22:45.087Z,100919.31
2022-12-11T03:25:20.511Z,100923.66
2022-12-11T03:28:00.106Z,100939.28
2022-12-11T03:30:36.258Z,100944.47
2022-12-11T03:33:11.999Z,100954.00
2022-12-11T03:35:45.004Z,100953.97
2022-12-11T03:38:23.027Z,100963.50
2022-12-11T03:40:57.492Z,100954.81
2022-12-11T03:43:28.322Z,100939.13
2022-12-11T03:46:01.162Z,100946.03
2022-12-11T03:48:37.159Z,100933.81
2022-12-11T03:51:09.308Z,100940.69
2022-12-11T03:53:40.946Z,100932.91
2022-12-11T03:56:13.562Z,100940.72
2022-12-11T03:58:42.515Z,100953.75
2022-12-11T04:01:13.794Z,100937.19
2022-12-11T04:03:45.686Z,100933.66
2022-12-11T04:06:14.432Z,100942.31
2022-12-11T04:08:43.391Z,100938.03
2022-12-11T04:11:30.221Z,100935.41
2022-12-11T04:14:18.641Z,100929.34
2022-12-11T04:16:49.021Z,100924.97
2022-12-11T04:19:35.455Z,100929.34
2022-12-11T04:22:22.743Z,100926.72
2022-12-11T04:24:51.572Z,100931.94
2022-12-11T04:27:34.834Z,100926.69
2022-12-11T04:30:03.785Z,100919.66
2022-12-11T04:32:33.860Z,100920.50
2022-12-11T04:35:02.995Z,100920.50
2022-12-11T04:37:34.348Z,100915.25
2022-12-11T04:40:03.155Z,100923.03
2022-12-11T04:42:32.631Z,100927.38
2022-12-11T04:45:01.857Z,100924.72
2022-12-11T04:47:30.736Z,100919.41
2022-12-11T04:50:00.981Z,100918.44
2022-12-11T04:52:29.783Z,100921.88
2022-12-11T04:54:58.448Z,100921.00
2022-12-11T04:57:27.280Z,100918.19
2022-12-11T04:59:56.210Z,100913.81
2022-12-11T05:02:25.074Z,100909.41
2022-12-11T05:04:53.851Z,100902.38
2022-12-11T05:07:27.009Z,100903.06
2022-12-11T05:09:55.918Z,100896.09
2022-12-11T05:12:27.547Z,100899.56
2022-12-11T05:14:57.362Z,100884.69
2022-12-11T05:17:29.054Z,100890.78
2022-12-11T05:19:58.054Z,100890.72
2022-12-11T05:22:31.032Z,100909.75
2022-12-11T05:24:59.923Z,100922.75
2022-12-11T05:27:28.820Z,100920.94
2022-12-11T05:29:59.494Z,100904.31
2022-12-11T05:32:29.070Z,100905.88
2022-12-11T05:34:58.171Z,100904.94
2022-12-11T05:37:28.824Z,100909.22
2022-12-11T05:39:57.749Z,100897.75
2022-12-11T05:42:28.979Z,100898.59
2022-12-11T05:44:58.271Z,100896.78
2022-12-11T05:47:27.151Z,100899.31
2022-12-11T05:49:56.017Z,100894.94
2022-12-11T05:52:25.009Z,100900.97
2022-12-11T05:54:55.216Z,100891.31
2022-12-11T05:57:23.966Z,100896.53
2022-12-11T05:59:52.762Z,100896.50
2022-12-11T06:02:21.962Z,100902.53
2022-12-11T06:04:50.812Z,100906.88
2022-12-11T06:07:19.564Z,100908.44
2022-12-11T06:09:48.244Z,100905.63
2022-12-11T06:12:18.767Z,100894.09
2022-12-11T06:14:47.589Z,100894.00
2022-12-11T06:17:16.329Z,100900.88
2022-12-11T06:19:45.456Z,100899.78
2022-12-11T06:22:14.356Z,100885.31
2022-12-11T06:24:43.153Z,100881.72
2022-12-11T06:27:12.049Z,100875.53
2022-12-11T06:29:42.541Z,100880.00
2022-12-11T06:32:11.288Z,100877.38
2022-12-11T06:34:40.008Z,100880.63
2022-12-11T06:37:08.776Z,100885.75
2022-12-11T06:39:43.695Z,100897.03
2022-12-11T06:42:13.587Z,100899.72
2022-12-11T06:44:43.998Z,100895.09
2022-12-11T06:47:12.770Z,100902.88
2022-12-11T06:49:47.013Z,100904.66
2022-12-11T06:52:18.524Z,100910.09
2022-12-11T06:54:47.471Z,100905.75
2022-12-11T06:57:18.884Z,100903.19
2022-12-11T06:59:49.003Z,100903.19
2022-12-11T07:02:21.654Z,100901.47
2022-12-11T07:04:54.878Z,100901.50
2022-12-11T07:07:24.363Z,100896.34
2022-12-11T07:09:53.046Z,100893.66
2022-12-11T07:12:21.663Z,100894.63
2022-12-11T07:14:52.030Z,100889.41
2022-12-11T07:17:22.386Z,100893.63
2022-12-11T07:19:51.190Z,100894.38
2022-12-11T07:22:23.306Z,100902.34
2022-12-11T07:24:52.917Z,100904.22
2022-12-11T07:27:31.448Z,100899.81
2022-12-11T07:30:08.314Z,100897.13
2022-12-11T07:32:37.309Z,100897.78
2022-12-11T07:35:09.482Z,100906.38
2022-12-11T07:37:46.149Z,100904.22
2022-12-11T07:40:17.932Z,100899.69
2022-12-11T07:42:46.615Z,100893.59
2022-12-11T07:45:16.889Z,100899.09
2022-12-11T07:47:45.602Z,100898.19
2022-12-11T07:50:14.576Z,100901.38
2022-12-11T07:52:43.223Z,100898.72
2022-12-11T07:55:12.786Z,100898.84
2022-12-11T07:57:42.236Z,100905.88
2022-12-11T08:00:12.751Z,100904.00
2022-12-11T08:02:42.902Z,100909.09
2022-12-11T08:05:13.256Z,100904.19
2022-12-11T08:07:42.382Z,100905.88
2022-12-11T08:10:12.134Z,100911.16
2022-12-11T08:12:40.791Z,100907.53
2022-12-11T08:15:11.660Z,100911.78
2022-12-11T08:17:42.172Z,100908.44
2022-12-11T08:20:12.864Z,100915.38
2022-12-11T08:22:41.736Z,100907.25
2022-12-11T08:25:11.380Z,100915.97
2022-12-11T08:27:40.646Z,100913.09
2022-12-11T08:30:12.008Z,100919.94
2022-12-11T08:32:44.635Z,100915.44
2022-12-11T08:35:13.724Z,100913.63
2022-12-11T08:37:45.735Z,100913.59
2022-12-11T08:40:14.930Z,100913.94
2022-12-11T08:42:44.566Z,100911.28
2022-12-11T08:45:13.879Z,100913.78
2022-12-11T08:47:45.602Z,100904.88
2022-12-11T08:50:14.458Z,100911.88
2022-12-11T08:52:46.598Z,100905.66
2022-12-11T08:55:15.765Z,100903.09
2022-12-11T08:57:44.885Z,100906.59
2022-12-11T09:00:16.959Z,100907.09
2022-12-11T09:02:49.339Z,100900.94
2022-12-11T09:05:18.293Z,100908.69
2022-12-11T09:07:47.610Z,100911.75
2022-12-11T09:10:16.409Z,100904.38
2022-12-11T09:12:45.647Z,100904.63
2022-12-11T09:15:14.872Z,100912.47
2022-12-11T09:17:43.674Z,100912.25
2022-12-11T09:20:14.241Z,100904.00
2022-12-11T09:22:43.447Z,100898.03
2022-12-11T09:25:12.898Z,100905.03
2022-12-11T09:27:42.005Z,100904.91
2022-12-11T09:30:11.453Z,100902.28
2022-12-11T09:32:40.971Z,100901.19
2022-12-11T09:35:12.076Z,100906.53
2022-12-11T09:37:43.209Z,100902.81
2022-12-11T09:40:14.725Z,100902.41
2022-12-11T09:42:59.368Z,100898.84
2022-12-11T09:45:28.213Z,100895.53
2022-12-11T09:47:58.966Z,100896.16
2022-12-11T09:50:34.417Z,100890.63
2022-12-11T09:53:18.396Z,100886.41
2022-12-11T09:56:01.717Z,100879.09
2022-12-11T09:58:47.615Z,100881.00
2022-12-11T10:01:27.963Z,100882.38
2022-12-11T10:04:25.714Z,100875.47
2022-12-11T10:07:12.372Z,100868.97
2022-12-11T10:09:53.408Z,100862.66
2022-12-11T10:12:40.170Z,100868.84
2022-12-11T10:15:38.643Z,100866.81
2022-12-11T10:18:14.342Z,100864.66
2022-12-11T10:20:45.494Z,100859.22
2022-12-11T10:23:21.895Z,100854.03
2022-12-11T10:25:59.014Z,100852.97
2022-12-11T10:28:30.208Z,100852.94
2022-12-11T10:31:18.965Z,100844.97
2022-12-11T10:34:04.902Z,100842.69
2022-12-11T10:36:38.943Z,100841.63
2022-12-11T10:39:16.892Z,100838.81
2022-12-11T10:41:50.350Z,100832.56
2022-12-11T10:44:25.537Z,100832.56
2022-12-11T10:47:11.015Z,100828.16
2022-12-11T10:49:45.282Z,100825.34
2022-12-11T10:52:24.996Z,100819.28
2022-12-11T10:55:01.462Z,100819.38
2022-12-11T10:57:36.781Z,100826.06
2022-12-11T11:00:09.774Z,100821.50
2022-12-11T11:02:40.821Z,100817.78
2022-12-11T11:05:17.135Z,100813.50
2022-12-11T11:07:45.957Z,100806.31
2022-12-11T11:10:19.950Z,100803.53
2022-12-11T11:13:03.403Z,100793.09
2022-12-11T11:15:33.056Z,100785.19
2022-12-11T11:18:14.399Z,100785.81
2022-12-11T11:20:49.345Z,100787.34
2022-12-11T11:23:21.981Z,100782.69
2022-12-11T11:25:56.409Z,100772.19
2022-12-11T11:28:31.722Z,100777.41
2022-12-11T11:31:08.616Z,100764.25
2022-12-11T11:33:46.626Z,100765.13
2022-12-11T11:36:24.523Z,100762.66
2022-12-11T11:39:14.977Z,100750.25
2022-12-11T11:41:57.601Z,100745.09
2022-12-11T11:44:38.508Z,100745.09
2022-12-11T11:47:17.402Z,100748.78
2022-12-11T11:50:03.501Z,100745.22
2022-12-11T11:52:40.369Z,100741.72
2022-12-11T11:55:21.747Z,100738.00
2022-12-11T11:58:06.302Z,100743.13
2022-12-11T12:00:36.711Z,100736.03
2022-12-11T12:03:15.489Z,100736.81
2022-12-11T12:05:55.030Z,100729.75
2022-12-11T12:08:43.366Z,100727.25
2022-12-11T12:11:29.665Z,100732.53
2022-12-11T12:14:50.720Z,100718.56
2022-12-11T12:17:26.068Z,100723.25
2022-12-11T12:20:13.507Z,100719.03
2022-12-11T12:23:24.538Z,100723.41
2022-12-11T12:26:07.779Z,100721.44
2022-12-11T12:28:54.169Z,100720.66
2022-12-11T12:32:05.907Z,100719.84
2022-12-11T12:35:04.659Z,100718.22
2022-12-11T12:37:53.087Z,100716.59
2022-12-11T12:40:33.060Z,100718.50
2022-12-11T12:43:28.511Z,100711.50
2022-12-11T12:46:17.859Z,100710.59
2022-12-11T12:48:47.204Z,100709.66
2022-12-11T12:51:19.647Z,100711.31
2022-12-11T12:53:57.144Z,100711.94
2022-12-11T12:56:28.824Z,100717.03
2022-12-11T12:58:58.330Z,100719.59
2022-12-11T13:01:33.364Z,100722.88
2022-12-11T13:04:05.875Z,100723.53
2022-12-11T13:06:43.066Z,100721.66
2022-12-11T13:09:18.354Z,100717.84
2022-12-11T13:11:53.781Z,100717.72
2022-12-11T13:14:31.845Z,100719.44
2022-12-11T13:17:35.736Z,100714.72
2022-12-11T13:20:22.332Z,100722.69
2022-12-11T13:23:17.428Z,100724.28
2022-12-11T13:25:53.817Z,100726.56
2022-12-11T13:28:34.555Z,100725.06
2022-12-11T13:31:24.670Z,100728.78
2022-12-11T13:33:58.273Z,100726.81
2022-12-11T13:36:35.169Z,100724.53
2022-12-11T13:39:17.171Z,100728.09
2022-12-11T13:41:53.453Z,100723.13
2022-12-11T13:44:27.599Z,100731.75
2022-12-11T13:47:01.123Z,100731.66
2022-12-11T13:49:37.050Z,100730.75
2022-12-11T13:52:08.029Z,100735.22
2022-12-11T13:54:38.396Z,100743.63
2022-12-11T13:57:21.095Z,100744.47
2022-12-11T13:59:53.815Z,100743.22
2022-12-11T14:02:26.761Z,100752.59
2022-12-11T14:05:02.105Z,100754.53
2022-12-11T14:07:35.358Z,100764.97
2022-12-11T14:10:17.708Z,100761.47
2022-12-11T14:12:52.912Z,100756.94
2022-12-11T14:15:22.948Z,100764.97
2022-12-11T14:17:52.237Z,100770.16
2022-12-11T14:20:27.845Z,100759.81
2022-12-11T14:23:07.791Z,100754.41
2022-12-11T14:25:37.972Z,100754.31
2022-12-11T14:28:16.962Z,100760.50
2022-12-11T14:30:53.138Z,100751.78
2022-12-11T14:33:29.413Z,100745.81
2022-12-11T14:36:01.598Z,100755.28
2022-12-11T14:38:37.050Z,100751.19
2022-12-11T14:41:17.580Z,100762.78
2022-12-11T14:43:52.702Z,100758.78
2022-12-11T14:46:37.605Z,100764.97
2022-12-11T14:49:14.041Z,100763.25
2022-12-11T14:51:48.411Z,100766.63
2022-12-11T14:54:29.192Z,100767.81
2022-12-11T14:57:02.200Z,100771.63
2022-12-11T14:59:33.547Z,100775.94
2022-12-11T15:02:21.953Z,100767.03
2022-12-11T15:05:14.724Z,100767.63
2022-12-11T15:07:45.396Z,100771.31
2022-12-11T15:10:36.793Z,100767.81
2022-12-11T15:13:09.337Z,100770.44
2022-12-11T15:15:47.228Z,100777.50
2022-12-11T15:18:24.743Z,100781.09
2022-12-11T15:20:57.818Z,100786.38
2022-12-11T15:23:27.468Z,100777.59
2022-12-11T15:26:01.078Z,100783.78
2022-12-11T15:28:36.020Z,100789.56
2022-12-11T15:31:11.326Z,100788.84
2022-12-11T15:33:48.331Z,100793.03
2022-12-11T15:36:31.985Z,100785.22
2022-12-11T15:39:04.260Z,100785.41
2022-12-11T15:41:34.904Z,100790.47
2022-12-11T15:44:06.597Z,100793.25
2022-12-11T15:46:38.473Z,100796.88
2022-12-11T15:49:13.994Z,100796.88
2022-12-11T15:51:43.347Z,100793.03
2022-12-11T15:54:13.334Z,100793.47
2022-12-11T15:56:42.233Z,100796.31
2022-12-11T15:59:13.361Z,100792.00
2022-12-11T16:01:44.970Z,100789.22
2022-12-11T16:04:14.111Z,100792.63
2022-12-11T16:06:46.487Z,100801.69
2022-12-11T16:09:15.632Z,100789.28
2022-12-11T16:11:50.377Z,100796.28
2022-12-11T16:14:20.592Z,100790.00
2022-12-11T16:16:49.746Z,100792.03
2022-12-11T16:19:18.568Z,100801.47
2022-12-11T16:21:47.293Z,100802.44
2022-12-11T16:24:16.555Z,100795.53
2022-12-11T16:26:45.436Z,100799.19
2022-12-11T16:29:14.794Z,100796.25
2022-12-11T16:31:45.089Z,100796.19
2022-12-11T16:34:13.979Z,100795.56
2022-12-11T16:36:42.648Z,100793.00
2022-12-11T16:39:13.402Z,100790.38
2022-12-11T16:41:42.521Z,100790.50
2022-12-11T16:44:11.556Z,100796.50
2022-12-11T16:46:40.287Z,100797.59
2022-12-11T16:49:10.608Z,100797.72
2022-12-11T16:51:41.317Z,100802.84
2022-12-11T16:54:10.593Z,100801.13
2022-12-11T16:56:40.749Z,100799.19
2022-12-11T16:59:09.707Z,100799.91
2022-12-11T17:01:39.260Z,100798.88
2022-12-11T17:04:11.641Z,100793.50
2022-12-11T17:06:41.638Z,100795.34
2022-12-11T17:09:13.095Z,100789.19
2022-12-11T17:11:44.141Z,100783.16
2022-12-11T17:14:13.453Z,100784.84
2022-12-11T17:16:42.220Z,100786.50
2022-12-11T17:19:13.196Z,100787.22
2022-12-11T17:21:45.802Z,100789.19
2022-12-11T17:24:17.997Z,100788.38
2022-12-11T17:26:47.084Z,100794.53
2022-12-11T17:29:15.848Z,100790.75
2022-12-11T17:31:45.150Z,100793.22
2022-12-11T17:34:16.126Z,100781.81
2022-12-11T17:36:46.932Z,100786.13
2022-12-11T17:39:18.781Z,100790.63
2022-12-11T17:41:48.000Z,100781.03
2022-12-11T17:44:20.470Z,100779.38
2022-12-11T17:46:50.463Z,100776.81
2022-12-11T17:49:20.564Z,100779.50
2022-12-11T17:51:49.945Z,100777.03
2022-12-11T17:54:18.586Z,100774.44
2022-12-11T17:56:50.480Z,100774.50
2022-12-11T17:59:19.172Z,100774.53
2022-12-11T18:01:48.666Z,100772.25
2022-12-11T18:04:17.417Z,100770.03
2022-12-11T18:06:47.398Z,100770.25
2022-12-11T18:09:16.328Z,100773.19
2022-12-11T18:11:45.448Z,100776.03
2022-12-11T18:14:17.580Z,100777.78
2022-12-11T18:16:48.601Z,100782.28
2022-12-11T18:19:17.816Z,100776.16
2022-12-11T18:21:49.443Z,100774.63
2022-12-11T18:24:18.351Z,100777.53
2022-12-11T18:26:47.376Z,100774.19
2022-12-11T18:29:16.736Z,100777.00
2022-12-11T18:31:45.556Z,100783.78
2022-12-11T18:34:14.544Z,100781.25
2022-12-11T18:36:43.195Z,100778.09
2022-12-11T18:39:13.683Z,100773.19
2022-12-11T18:41:53.868Z,100779.16
2022-12-11T18:44:35.565Z,100774.09
2022-12-11T18:47:04.344Z,100771.41
2022-12-11T18:49:33.576Z,100772.53
2022-12-11T18:52:02.326Z,100769.88
2022-12-11T18:54:32.327Z,100774.16
2022-12-11T18:57:01.335Z,100769.19
2022-12-11T18:59:30.325Z,100769.38
2022-12-11T19:01:59.340Z,100769.47
2022-12-11T19:04:28.237Z,100775.09
2022-12-11T19:06:57.172Z,100775.44
2022-12-11T19:09:26.121Z,100772.94
2022-12-11T19:11:56.410Z,100776.66
2022-12-11T19:14:25.239Z,100771.28
2022-12-11T19:16:54.004Z,100773.38
2022-12-11T19:19:23.838Z,100781.72
2022-12-11T19:21:52.600Z,100779.91
2022-12-11T19:24:24.377Z,100781.72
2022-12-11T19:26:59.096Z,100791.50
2022-12-11T19:29:32.394Z,100793.53
2022-12-11T19:32:03.454Z,100793.47
2022-12-11T19:34:32.624Z,100796.28
2022-12-11T19:37:01.806Z,100797.84
2022-12-11T19:39:31.239Z,100794.13
2022-12-11T19:42:01.842Z,100789.91
2022-12-11T19:44:30.767Z,100795.28
2022-12-11T19:46:59.658Z,100792.13
2022-12-11T19:49:30.926Z,100795.97
2022-12-11T19:51:59.598Z,100788.28
2022-12-11T19:54:28.637Z,100795.16
2022-12-11T19:56:57.406Z,100792.84
2022-12-11T19:59:28.078Z,100794.03
2022-12-11T20:01:56.933Z,100791.69
2022-12-11T20:04:26.095Z,100791.84
2022-12-11T20:06:54.808Z,100792.75
2022-12-11T20:09:24.762Z,100789.00
2022-12-11T20:11:54.082Z,100786.53
2022-12-11T20:14:27.562Z,100792.19
2022-12-11T20:17:15.014Z,100792.22
2022-12-11T20:19:44.730Z,100791.50
2022-12-11T20:22:13.728Z,100794.19
2022-12-11T20:24:44.573Z,100781.50
2022-12-11T20:27:13.645Z,100791.56
2022-12-11T20:29:44.001Z,100790.97
2022-12-11T20:32:13.308Z,100784.88
2022-12-11T20:34:42.323Z,100792.88
2022-12-11T20:37:11.075Z,100788.38
2022-12-11T20:39:39.877Z,100792.53
2022-12-11T20:42:11.362Z,100801.00
2022-12-11T20:44:44.183Z,100800.13
2022-12-11T20:47:20.864Z,100805.44
2022-12-11T20:49:51.441Z,100802.22
2022-12-11T20:52:21.419Z,100801.59
2022-12-11T20:54:50.058Z,100813.09
2022-12-11T20:57:18.888Z,100809.69
2022-12-11T20:59:49.268Z,100810.66
2022-12-11T21:02:19.905Z,100801.13
2022-12-11T21:04:48.698Z,100804.00
2022-12-11T21:07:18.005Z,100805.75
2022-12-11T21:09:46.876Z,100798.03
2022-12-11T21:12:15.588Z,100807.09
2022-12-11T21:14:44.452Z,100805.41
2022-12-11T21:17:14.558Z,100804.69
2022-12-11T21:19:44.949Z,100808.28
2022-12-11T21:22:14.025Z,100806.56
2022-12-11T21:24:42.849Z,100810.97
2022-12-11T21:27:11.791Z,100812.78
2022-12-11T21:29:40.825Z,100814.63
2022-12-11T21:32:09.929Z,100819.97
2022-12-11T21:34:39.014Z,100827.78
2022-12-11T21:37:09.404Z,100826.03
2022-12-11T21:39:39.729Z,100821.72
2022-12-11T21:42:08.559Z,100818.16
2022-12-11T21:47:26.061Z,100818.44
2022-12-11T21:49:54.996Z,100815.19
2022-12-11T21:52:27.958Z,100813.09
2022-12-11T21:54:56.866Z,100813.41
2022-12-11T21:57:26.701Z,100815.47
2022-12-11T21:59:55.974Z,100808.66
2022-12-11T22:02:24.948Z,100816.63
2022-12-11T22:04:55.728Z,100810.44
2022-12-11T22:07:25.698Z,100810.25
2022-12-11T22:09:54.581Z,100801.63
2022-12-11T22:12:27.099Z,100801.03
2022-12-11T22:14:56.482Z,100809.81
2022-12-11T22:17:26.021Z,100807.25
2022-12-11T22:19:54.842Z,100807.28
2022-12-11T22:22:24.961Z,100815.19
2022-12-11T22:24:53.725Z,100809.94
2022-12-11T22:27:23.988Z,100818.50
2022-12-11T22:29:53.313Z,100815.72
2022-12-11T22:32:22.583Z,100804.22
2022-12-11T22:34:51.533Z,100816.31
2022-12-11T22:37:20.137Z,100813.81
2022-12-11T22:39:50.222Z,100806.09
2022-12-11T22:42:19.005Z,100813.16
2022-12-11T22:44:47.829Z,100815.19
2022-12-11T22:47:16.493Z,100811.81
2022-12-11T22:49:45.236Z,100811.13
2022-12-11T22:52:14.207Z,100820.63
2022-12-11T22:54:43.818Z,100815.19
2022-12-11T22:57:14.492Z,100808.25
2022-12-11T22:59:43.488Z,100818.81
2022-12-11T23:02:12.501Z,100817.00
2022-12-11T23:04:41.292Z,100820.41
2022-12-11T23:07:10.544Z,100815.97
2022-12-11T23:09:39.472Z,100817.66
2022-12-11T23:12:13.572Z,100813.28
2022-12-11T23:14:42.277Z,100819.25
2022-12-11T23:17:11.246Z,100829.75
2022-12-11T23:19:40.115Z,100839.31
2022-12-11T23:22:09.197Z,100831.19
2022-12-11T23:24:37.900Z,100828.47
2022-12-11T23:27:06.770Z,100829.31
2022-12-11T23:29:36.828Z,100825.94
2022-12-11T23:32:08.541Z,100830.09
2022-12-11T23:34:37.749Z,100837.00
2022-12-11T23:37:06.587Z,100831.72
2022-12-11T23:39:35.288Z,100830.88
2022-12-11T23:42:04.066Z,100836.13
2022-12-11T23:44:32.603Z,100834.16
2022-12-11T23:47:05.935Z,100838.44
2022-12-11T23:49:34.925Z,100835.06
2022-12-11T23:52:03.457Z,100836.88
2022-12-11T23:54:32.454Z,100842.31
2022-12-11T23:57:01.342Z,100833.66
2022-12-11T23:59:30.210Z,100838.94
